createdAt,value
2023-10-19T00:00:04.309Z,6.46
2023-10-19T00:01:04.445Z,6.50
2023-10-19T00:02:04.392Z,6.55
2023-10-19T00:03:04.370Z,6.60
2023-10-19T00:04:04.277Z,6.61
2023-10-19T00:05:04.378Z,6.64
2023-10-19T00:06:04.243Z,6.65
2023-10-19T00:07:04.264Z,6.68
2023-10-19T00:08:04.214Z,6.72
2023-10-19T00:09:04.251Z,6.71
2023-10-19T00:10:04.170Z,6.73
2023-10-19T00:11:04.372Z,6.73
2023-10-19T00:12:04.168Z,6.72
2023-10-19T00:13:04.140Z,6.73
2023-10-19T00:14:04.124Z,6.73
2023-10-19T00:15:04.123Z,6.75
2023-10-19T00:16:04.146Z,6.78
2023-10-19T00:17:04.141Z,6.82
2023-10-19T00:18:04.111Z,6.86
2023-10-19T00:19:04.070Z,6.87
2023-10-19T00:20:04.033Z,6.86
2023-10-19T00:21:04.034Z,6.87
2023-10-19T00:22:04.030Z,6.89
2023-10-19T00:23:04.012Z,6.89
2023-10-19T00:24:03.997Z,6.90
2023-10-19T00:25:04.000Z,6.89
2023-10-19T00:26:04.002Z,6.87
2023-10-19T00:27:03.957Z,6.89
2023-10-19T00:28:03.948Z,6.89
2023-10-19T00:29:04.060Z,6.91
2023-10-19T00:30:03.922Z,6.91
2023-10-19T00:31:03.937Z,6.91
2023-10-19T00:32:04.019Z,6.91
2023-10-19T00:33:03.899Z,6.93
2023-10-19T00:34:03.867Z,6.94
2023-10-19T00:35:03.873Z,6.94
2023-10-19T00:36:03.860Z,6.94
2023-10-19T00:37:03.819Z,6.96
2023-10-19T00:38:03.858Z,6.97
2023-10-19T00:39:03.808Z,6.97
2023-10-19T00:40:03.823Z,6.99
2023-10-19T00:41:03.764Z,6.99
2023-10-19T00:42:03.769Z,6.99
2023-10-19T00:43:03.776Z,6.99
2023-10-19T00:44:03.754Z,7.00
2023-10-19T00:45:03.731Z,7.00
2023-10-19T00:46:03.728Z,7.04
2023-10-19T00:47:03.733Z,7.04
2023-10-19T00:48:03.686Z,7.07
2023-10-19T00:49:03.719Z,7.07
2023-10-19T00:50:03.651Z,7.08
2023-10-19T00:51:03.649Z,7.11
2023-10-19T00:52:03.652Z,7.12
2023-10-19T00:53:03.630Z,7.11
2023-10-19T00:54:03.600Z,7.15
2023-10-19T00:55:03.604Z,7.14
2023-10-19T00:56:03.573Z,7.14
2023-10-19T00:57:03.613Z,7.15
2023-10-19T00:58:03.555Z,7.15
2023-10-19T00:59:03.543Z,7.15
2023-10-19T01:00:03.512Z,7.18
2023-10-19T01:01:03.544Z,7.18
2023-10-19T01:02:03.556Z,7.19
2023-10-19T01:03:03.550Z,7.21
2023-10-19T01:04:03.459Z,7.23
2023-10-19T01:05:03.465Z,7.26
2023-10-19T01:06:03.441Z,7.24
2023-10-19T01:07:03.441Z,7.26
2023-10-19T01:08:03.440Z,7.27
2023-10-19T01:09:03.405Z,7.27
2023-10-19T01:10:03.394Z,7.27
2023-10-19T01:11:03.360Z,7.27
2023-10-19T01:12:03.377Z,7.29
2023-10-19T01:13:03.360Z,7.29
2023-10-19T01:14:03.340Z,7.29
2023-10-19T01:15:03.311Z,7.29
2023-10-19T01:16:03.361Z,7.30
2023-10-19T01:17:03.344Z,7.29
2023-10-19T01:18:03.299Z,7.30
2023-10-19T01:19:03.253Z,7.30
2023-10-19T01:20:03.260Z,7.30
2023-10-19T01:21:03.261Z,7.32
2023-10-19T01:22:03.255Z,7.33
2023-10-19T01:23:03.209Z,7.32
2023-10-19T01:24:03.209Z,7.33
2023-10-19T01:25:03.185Z,7.33
2023-10-19T01:26:03.195Z,7.34
2023-10-19T01:27:03.164Z,7.33
2023-10-19T01:28:03.161Z,7.34
2023-10-19T01:29:03.142Z,7.34
2023-10-19T01:30:03.149Z,7.36
2023-10-19T01:31:03.125Z,7.33
2023-10-19T01:32:03.105Z,7.34
2023-10-19T01:33:03.112Z,7.36
2023-10-19T01:34:03.062Z,7.36
2023-10-19T01:35:03.077Z,7.37
2023-10-19T01:36:03.049Z,7.37
2023-10-19T01:37:03.020Z,7.37
2023-10-19T01:38:03.029Z,7.37
2023-10-19T01:39:03.013Z,7.36
2023-10-19T01:40:03.005Z,7.37
2023-10-19T01:41:02.956Z,7.37
2023-10-19T01:42:02.996Z,7.39
2023-10-19T01:43:03.027Z,7.39
2023-10-19T01:44:03.002Z,7.42
2023-10-19T01:45:02.924Z,7.42
2023-10-19T01:46:02.908Z,7.41
2023-10-19T01:47:02.939Z,7.42
2023-10-19T01:48:02.954Z,7.45
2023-10-19T01:49:02.870Z,7.44
2023-10-19T01:50:02.845Z,7.42
2023-10-19T01:51:02.837Z,7.44
2023-10-19T01:52:02.832Z,7.44
2023-10-19T01:53:02.817Z,7.44
2023-10-19T01:54:02.827Z,7.44
2023-10-19T01:55:02.805Z,7.44
2023-10-19T01:56:02.779Z,7.45
2023-10-19T01:57:03.022Z,7.45
2023-10-19T01:58:02.754Z,7.45
2023-10-19T01:59:02.794Z,7.47
2023-10-19T02:00:02.751Z,7.48
2023-10-19T02:01:02.728Z,7.48
2023-10-19T02:02:02.764Z,7.48
2023-10-19T02:03:02.765Z,7.50
2023-10-19T02:04:02.836Z,7.50
2023-10-19T02:05:02.667Z,7.48
2023-10-19T02:06:02.642Z,7.51
2023-10-19T02:07:02.661Z,7.52
2023-10-19T02:08:02.642Z,7.51
2023-10-19T02:09:02.623Z,7.52
2023-10-19T02:10:02.590Z,7.54
2023-10-19T02:11:02.582Z,7.55
2023-10-19T02:12:02.575Z,7.57
2023-10-19T02:13:02.549Z,7.57
2023-10-19T02:14:02.545Z,7.58
2023-10-19T02:15:02.517Z,7.58
2023-10-19T02:16:02.548Z,7.57
2023-10-19T02:17:02.614Z,7.57
2023-10-19T02:18:02.524Z,7.55
2023-10-19T02:19:02.483Z,7.58
2023-10-19T02:20:02.477Z,7.57
2023-10-19T02:21:02.464Z,7.57
2023-10-19T02:22:02.433Z,7.58
2023-10-19T02:23:02.415Z,7.60
2023-10-19T02:24:02.413Z,7.58
2023-10-19T02:25:02.397Z,7.58
2023-10-19T02:26:02.402Z,7.58
2023-10-19T02:27:02.710Z,7.60
2023-10-19T02:28:02.345Z,7.60
2023-10-19T02:29:02.440Z,7.60
2023-10-19T02:30:02.322Z,7.62
2023-10-19T02:31:02.357Z,7.63
2023-10-19T02:32:02.359Z,7.62
2023-10-19T02:33:02.358Z,7.63
2023-10-19T02:34:02.293Z,7.66
2023-10-19T02:35:02.353Z,7.66
2023-10-19T02:36:02.266Z,7.67
2023-10-19T02:37:02.237Z,7.67
2023-10-19T02:38:02.226Z,7.67
2023-10-19T02:39:02.217Z,7.67
2023-10-19T02:40:02.210Z,7.67
2023-10-19T02:41:02.186Z,7.66
2023-10-19T02:42:02.201Z,7.66
2023-10-19T02:43:02.195Z,7.66
2023-10-19T02:44:02.266Z,7.66
2023-10-19T02:45:02.163Z,7.67
2023-10-19T02:46:02.130Z,7.67
2023-10-19T02:47:02.268Z,7.63
2023-10-19T02:48:02.207Z,7.67
2023-10-19T02:49:02.153Z,7.69
2023-10-19T02:50:02.132Z,7.69
2023-10-19T02:51:02.853Z,7.71
2023-10-19T02:52:02.155Z,7.73
2023-10-19T02:53:02.084Z,7.74
2023-10-19T02:54:02.083Z,7.73
2023-10-19T02:55:01.997Z,7.73
2023-10-19T02:56:02.248Z,7.74
2023-10-19T02:57:02.146Z,7.74
2023-10-19T02:58:01.987Z,7.74
2023-10-19T02:59:02.185Z,7.74
2023-10-19T03:00:01.957Z,7.74
2023-10-19T03:01:02.062Z,7.76
2023-10-19T03:02:02.249Z,7.77
2023-10-19T03:03:01.987Z,7.77
2023-10-19T03:04:01.943Z,7.76
2023-10-19T03:05:01.924Z,7.77
2023-10-19T03:06:01.870Z,7.77
2023-10-19T03:07:01.845Z,7.76
2023-10-19T03:08:01.862Z,7.76
2023-10-19T03:09:01.832Z,7.76
2023-10-19T03:10:01.835Z,7.77
2023-10-19T03:11:01.819Z,7.76
2023-10-19T03:12:01.813Z,7.76
2023-10-19T03:13:01.777Z,7.74
2023-10-19T03:14:01.782Z,7.76
2023-10-19T03:15:01.817Z,7.76
2023-10-19T03:16:01.744Z,7.77
2023-10-19T03:17:02.168Z,7.77
2023-10-19T03:18:01.720Z,7.79
2023-10-19T03:19:01.714Z,7.79
2023-10-19T03:20:01.776Z,7.81
2023-10-19T03:21:01.684Z,7.82
2023-10-19T03:22:01.742Z,7.82
2023-10-19T03:23:01.698Z,7.82
2023-10-19T03:24:01.633Z,7.84
2023-10-19T03:25:01.765Z,7.81
2023-10-19T03:26:01.629Z,7.82
2023-10-19T03:27:01.581Z,7.82
2023-10-19T03:28:01.574Z,7.86
2023-10-19T03:29:01.579Z,7.86
2023-10-19T03:30:01.543Z,7.86
2023-10-19T03:31:01.573Z,7.88
2023-10-19T03:32:01.610Z,7.89
2023-10-19T03:33:01.559Z,7.88
2023-10-19T03:34:01.509Z,7.89
2023-10-19T03:35:01.632Z,7.92
2023-10-19T03:36:01.486Z,7.91
2023-10-19T03:37:01.450Z,7.88
2023-10-19T03:38:01.430Z,7.88
2023-10-19T03:39:01.396Z,7.88
2023-10-19T03:40:01.602Z,7.88
2023-10-19T03:41:01.387Z,7.89
2023-10-19T03:42:01.431Z,7.89
2023-10-19T03:43:01.355Z,7.88
2023-10-19T03:44:01.355Z,7.89
2023-10-19T03:45:01.333Z,7.86
2023-10-19T03:46:01.338Z,7.86
2023-10-19T03:47:01.531Z,7.85
2023-10-19T03:48:01.304Z,7.86
2023-10-19T03:49:01.285Z,7.88
2023-10-19T03:50:01.281Z,7.88
2023-10-19T03:51:01.299Z,7.88
2023-10-19T03:52:01.236Z,7.89
2023-10-19T03:53:01.315Z,7.89
2023-10-19T03:54:01.219Z,7.91
2023-10-19T03:55:01.202Z,7.91
2023-10-19T03:56:01.230Z,7.89
2023-10-19T03:57:01.167Z,7.89
2023-10-19T03:58:01.235Z,7.89
2023-10-19T03:59:01.154Z,7.92
2023-10-19T04:00:01.184Z,7.91
2023-10-19T04:01:01.135Z,7.92
2023-10-19T04:02:01.192Z,7.91
2023-10-19T04:03:01.216Z,7.91
2023-10-19T04:04:02.022Z,7.91
2023-10-19T04:05:01.109Z,7.94
2023-10-19T04:06:01.071Z,7.95
2023-10-19T04:07:01.055Z,7.92
2023-10-19T04:08:01.097Z,7.91
2023-10-19T04:09:01.140Z,7.91
2023-10-19T04:10:01.194Z,7.92
2023-10-19T04:11:01.057Z,7.95
2023-10-19T04:12:01.086Z,7.95
2023-10-19T04:13:00.983Z,7.95
2023-10-19T04:14:00.984Z,7.95
2023-10-19T04:15:00.948Z,7.94
2023-10-19T04:16:00.974Z,7.96
2023-10-19T04:17:01.009Z,7.95
2023-10-19T04:18:00.962Z,7.95
2023-10-19T04:19:00.935Z,7.92
2023-10-19T04:20:00.892Z,7.92
2023-10-19T04:21:00.870Z,7.92
2023-10-19T04:22:00.887Z,7.95
2023-10-19T04:23:00.875Z,7.95
2023-10-19T04:24:00.933Z,7.96
2023-10-19T04:25:00.814Z,7.96
2023-10-19T04:26:00.830Z,7.99
2023-10-19T04:27:00.791Z,7.95
2023-10-19T04:28:00.844Z,7.95
2023-10-19T04:29:00.811Z,7.94
2023-10-19T04:30:00.755Z,7.91
2023-10-19T04:31:00.890Z,7.92
2023-10-19T04:32:00.791Z,7.91
2023-10-19T04:33:00.737Z,7.92
2023-10-19T04:34:00.707Z,7.94
2023-10-19T04:35:00.736Z,7.92
2023-10-19T04:36:00.833Z,7.95
2023-10-19T04:37:00.658Z,7.95
2023-10-19T04:38:00.721Z,7.96
2023-10-19T04:39:00.627Z,7.96
2023-10-19T04:40:00.654Z,7.99
2023-10-19T04:41:00.662Z,7.99
2023-10-19T04:42:00.613Z,7.99
2023-10-19T04:43:00.694Z,7.99
2023-10-19T04:44:00.598Z,7.99
2023-10-19T04:45:00.574Z,8.03
2023-10-19T04:46:00.588Z,8.06
2023-10-19T04:47:00.608Z,8.07
2023-10-19T04:48:00.608Z,8.09
2023-10-19T04:49:00.500Z,8.09
2023-10-19T04:50:00.630Z,8.07
2023-10-19T04:51:00.483Z,8.06
2023-10-19T04:52:00.453Z,8.03
2023-10-19T04:53:00.519Z,8.03
2023-10-19T04:54:00.444Z,8.04
2023-10-19T04:55:00.432Z,8.03
2023-10-19T04:56:00.435Z,8.03
2023-10-19T04:57:00.394Z,8.03
2023-10-19T04:58:00.384Z,8.03
2023-10-19T04:59:00.397Z,8.03
2023-10-19T05:00:00.403Z,8.04
2023-10-19T05:01:00.357Z,8.06
2023-10-19T05:02:01.059Z,8.06
2023-10-19T05:03:00.382Z,8.03
2023-10-19T05:04:00.349Z,8.03
2023-10-19T05:05:00.423Z,8.04
2023-10-19T05:06:00.334Z,8.04
2023-10-19T05:07:00.254Z,8.04
2023-10-19T05:08:00.304Z,8.06
2023-10-19T05:09:00.232Z,8.06
2023-10-19T05:10:00.274Z,8.07
2023-10-19T05:11:00.323Z,8.06
2023-10-19T05:12:00.227Z,8.07
2023-10-19T05:13:00.206Z,8.06
2023-10-19T05:14:00.256Z,8.04
2023-10-19T05:15:00.187Z,8.04
2023-10-19T05:16:00.383Z,8.06
2023-10-19T05:17:00.191Z,8.04
2023-10-19T05:18:00.288Z,8.07
2023-10-19T05:19:00.091Z,8.04
2023-10-19T05:20:00.141Z,8.04
2023-10-19T05:21:00.098Z,8.02
2023-10-19T05:22:00.056Z,8.03
2023-10-19T05:23:00.080Z,8.06
2023-10-19T05:24:00.042Z,8.09
2023-10-19T05:25:00.007Z,8.07
2023-10-19T05:26:00.084Z,8.07
2023-10-19T05:27:00.002Z,8.09
2023-10-19T05:27:59.991Z,8.10
2023-10-19T05:28:59.985Z,8.10
2023-10-19T05:29:59.965Z,8.10
2023-10-19T05:30:59.934Z,8.12
2023-10-19T05:32:00.059Z,8.10
2023-10-19T05:32:59.933Z,8.10
2023-10-19T05:33:59.899Z,8.13
2023-10-19T05:35:01.211Z,8.12
2023-10-19T05:35:59.892Z,8.13
2023-10-19T05:37:00.010Z,8.17
2023-10-19T05:37:59.899Z,8.17
2023-10-19T05:38:59.836Z,8.14
2023-10-19T05:39:59.850Z,8.14
2023-10-19T05:40:59.855Z,8.17
2023-10-19T05:41:59.817Z,8.17
2023-10-19T05:42:59.780Z,8.14
2023-10-19T05:43:59.819Z,8.17
2023-10-19T05:44:59.771Z,8.18
2023-10-19T05:45:59.810Z,8.20
2023-10-19T05:47:00.504Z,8.17
2023-10-19T05:47:59.732Z,8.14
2023-10-19T05:48:59.719Z,8.18
2023-10-19T05:49:59.755Z,8.21
2023-10-19T05:50:59.693Z,8.20
2023-10-19T05:51:59.673Z,8.21
2023-10-19T05:52:59.686Z,8.22
2023-10-19T05:53:59.640Z,8.22
2023-10-19T05:54:59.656Z,8.21
2023-10-19T05:55:59.670Z,8.22
2023-10-19T05:56:59.786Z,8.21
2023-10-19T05:57:59.583Z,8.20
2023-10-19T05:58:59.632Z,8.22
2023-10-19T05:59:59.579Z,8.24
2023-10-19T06:00:59.553Z,8.24
2023-10-19T06:01:59.586Z,8.21
2023-10-19T06:02:59.579Z,8.22
2023-10-19T06:03:59.551Z,8.25
2023-10-19T06:04:59.533Z,8.25
2023-10-19T06:05:59.511Z,8.27
2023-10-19T06:06:59.470Z,8.27
2023-10-19T06:07:59.467Z,8.27
2023-10-19T06:08:59.489Z,8.28
2023-10-19T06:09:59.432Z,8.31
2023-10-19T06:10:59.460Z,8.29
2023-10-19T06:11:59.384Z,8.29
2023-10-19T06:12:59.400Z,8.34
2023-10-19T06:13:59.379Z,8.36
2023-10-19T06:14:59.366Z,8.34
2023-10-19T06:15:59.406Z,8.32
2023-10-19T06:16:59.467Z,8.34
2023-10-19T06:17:59.466Z,8.32
2023-10-19T06:18:59.414Z,8.32
2023-10-19T06:19:59.298Z,8.32
2023-10-19T06:20:59.283Z,8.34
2023-10-19T06:21:59.257Z,8.36
2023-10-19T06:22:59.293Z,8.37
2023-10-19T06:23:59.239Z,8.40
2023-10-19T06:24:59.234Z,8.42
2023-10-19T06:25:59.271Z,8.43
2023-10-19T06:26:59.201Z,8.43
2023-10-19T06:27:59.194Z,8.42
2023-10-19T06:28:59.233Z,8.45
2023-10-19T06:29:59.146Z,8.43
2023-10-19T06:30:59.137Z,8.43
2023-10-19T06:31:59.228Z,8.43
2023-10-19T06:32:59.189Z,8.46
2023-10-19T06:33:59.212Z,8.45
2023-10-19T06:34:59.135Z,8.46
2023-10-19T06:35:59.069Z,8.49
2023-10-19T06:36:59.099Z,8.50
2023-10-19T06:37:59.101Z,8.50
2023-10-19T06:38:59.035Z,8.47
2023-10-19T06:39:59.023Z,8.47
2023-10-19T06:40:59.078Z,8.47
2023-10-19T06:41:59.012Z,8.49
2023-10-19T06:42:59.002Z,8.47
2023-10-19T06:43:59.004Z,8.47
2023-10-19T06:44:58.958Z,8.43
2023-10-19T06:45:58.984Z,8.42
2023-10-19T06:46:58.969Z,8.45
2023-10-19T06:47:58.937Z,8.45
2023-10-19T06:48:58.908Z,8.45
2023-10-19T06:49:58.936Z,8.46
2023-10-19T06:50:58.898Z,8.47
2023-10-19T06:51:58.842Z,8.49
2023-10-19T06:52:58.884Z,8.49
2023-10-19T06:53:58.878Z,8.49
2023-10-19T06:54:58.846Z,8.47
2023-10-19T06:55:58.837Z,8.49
2023-10-19T06:56:58.793Z,8.49
2023-10-19T06:57:58.769Z,8.50
2023-10-19T06:58:58.789Z,8.49
2023-10-19T06:59:58.766Z,8.49
2023-10-19T07:00:58.742Z,8.49
2023-10-19T07:01:58.758Z,8.47
2023-10-19T07:02:58.733Z,8.47
2023-10-19T07:03:58.753Z,8.49
2023-10-19T07:04:58.726Z,8.50
2023-10-19T07:05:58.683Z,8.50
2023-10-19T07:06:58.663Z,8.50
2023-10-19T07:07:58.695Z,8.50
2023-10-19T07:08:58.653Z,8.52
2023-10-19T07:09:58.633Z,8.54
2023-10-19T07:10:58.641Z,8.55
2023-10-19T07:11:58.585Z,8.57
2023-10-19T07:12:58.594Z,8.58
2023-10-19T07:13:58.643Z,8.58
2023-10-19T07:14:58.555Z,8.60
2023-10-19T07:15:58.571Z,8.60
2023-10-19T07:16:58.637Z,8.61
2023-10-19T07:17:58.535Z,8.61
2023-10-19T07:18:58.513Z,8.63
2023-10-19T07:19:58.510Z,8.61
2023-10-19T07:20:58.462Z,8.64
2023-10-19T07:21:58.481Z,8.64
2023-10-19T07:22:58.537Z,8.65
2023-10-19T07:23:58.447Z,8.68
2023-10-19T07:24:58.442Z,8.70
2023-10-19T07:25:58.425Z,8.71
2023-10-19T07:26:58.432Z,8.73
2023-10-19T07:27:58.391Z,8.75
2023-10-19T07:28:58.440Z,8.76
2023-10-19T07:29:58.375Z,8.76
2023-10-19T07:30:58.351Z,8.78
2023-10-19T07:31:58.495Z,8.82
2023-10-19T07:32:58.366Z,8.85
2023-10-19T07:33:58.320Z,8.86
2023-10-19T07:34:58.301Z,8.91
2023-10-19T07:35:58.274Z,8.94
2023-10-19T07:36:58.272Z,8.98
2023-10-19T07:37:58.404Z,9.01
2023-10-19T07:38:58.247Z,9.01
2023-10-19T07:39:58.226Z,9.03
2023-10-19T07:40:58.925Z,9.04
2023-10-19T07:41:58.209Z,9.06
2023-10-19T07:42:58.189Z,9.10
2023-10-19T07:43:58.214Z,9.13
2023-10-19T07:44:58.172Z,9.13
2023-10-19T07:45:58.174Z,9.15
2023-10-19T07:46:58.178Z,9.13
2023-10-19T07:47:58.139Z,9.17
2023-10-19T07:48:58.132Z,9.19
2023-10-19T07:49:58.133Z,9.20
2023-10-19T07:50:58.102Z,9.23
2023-10-19T07:51:59.126Z,9.26
2023-10-19T07:52:58.086Z,9.26
2023-10-19T07:53:58.089Z,9.30
2023-10-19T07:54:58.024Z,9.31
2023-10-19T07:55:58.068Z,9.32
2023-10-19T07:56:57.998Z,9.35
2023-10-19T07:57:57.977Z,9.37
2023-10-19T07:58:58.100Z,9.38
2023-10-19T07:59:57.967Z,9.40
2023-10-19T08:00:58.214Z,9.41
2023-10-19T08:01:57.979Z,9.45
2023-10-19T08:02:57.966Z,9.49
2023-10-19T08:03:57.981Z,9.50
2023-10-19T08:04:57.920Z,9.53
2023-10-19T08:05:57.865Z,9.58
2023-10-19T08:06:57.853Z,9.60
2023-10-19T08:07:57.913Z,9.65
2023-10-19T08:08:57.846Z,9.67
2023-10-19T08:09:57.819Z,9.71
2023-10-19T08:10:57.932Z,9.71
2023-10-19T08:11:58.474Z,9.74
2023-10-19T08:12:57.787Z,9.75
2023-10-19T08:13:57.789Z,9.78
2023-10-19T08:14:57.745Z,9.80
2023-10-19T08:15:57.762Z,9.85
2023-10-19T08:16:57.775Z,9.86
2023-10-19T08:17:57.750Z,9.91
2023-10-19T08:18:57.796Z,9.92
2023-10-19T08:19:57.718Z,9.95
2023-10-19T08:20:57.759Z,9.98
2023-10-19T08:21:57.622Z,9.98
2023-10-19T08:22:57.697Z,9.99
2023-10-19T08:23:57.627Z,10.04
2023-10-19T08:24:57.606Z,10.07
2023-10-19T08:25:57.947Z,10.10
2023-10-19T08:26:57.591Z,10.14
2023-10-19T08:27:57.584Z,10.18
2023-10-19T08:28:57.594Z,10.24
2023-10-19T08:29:57.533Z,10.26
2023-10-19T08:30:57.976Z,10.31
2023-10-19T08:31:57.592Z,10.36
2023-10-19T08:32:57.547Z,10.44
2023-10-19T08:33:57.538Z,10.49
2023-10-19T08:34:57.569Z,10.57
2023-10-19T08:35:57.523Z,10.66
2023-10-19T08:36:57.457Z,10.75
2023-10-19T08:37:57.471Z,10.86
2023-10-19T08:38:57.434Z,10.95
2023-10-19T08:39:57.395Z,11.06
2023-10-19T08:40:58.116Z,11.13
2023-10-19T08:41:57.385Z,11.20
2023-10-19T08:42:57.364Z,11.23
2023-10-19T08:43:57.421Z,11.23
2023-10-19T08:44:57.340Z,11.24
2023-10-19T08:45:57.393Z,11.27
2023-10-19T08:46:58.754Z,11.31
2023-10-19T08:47:57.432Z,11.35
2023-10-19T08:48:57.289Z,11.38
2023-10-19T08:49:57.288Z,11.41
2023-10-19T08:50:57.326Z,11.44
2023-10-19T08:51:57.215Z,11.46
2023-10-19T08:52:57.313Z,11.53
2023-10-19T08:53:57.203Z,11.57
2023-10-19T08:54:57.200Z,11.64
2023-10-19T08:55:57.218Z,11.81
2023-10-19T08:56:57.155Z,11.96
2023-10-19T08:57:57.146Z,12.11
2023-10-19T08:58:57.233Z,12.23
2023-10-19T08:59:57.117Z,12.36
2023-10-19T09:00:57.265Z,12.55
2023-10-19T09:01:57.093Z,12.73
2023-10-19T09:02:57.112Z,12.91
2023-10-19T09:03:57.117Z,13.21
2023-10-19T09:04:57.197Z,13.61
2023-10-19T09:05:57.044Z,13.90
2023-10-19T09:06:57.053Z,13.93
2023-10-19T09:07:57.065Z,13.96
2023-10-19T09:08:56.999Z,13.99
2023-10-19T09:09:57.016Z,14.01
2023-10-19T09:10:57.076Z,14.04
2023-10-19T09:11:56.968Z,14.05
2023-10-19T09:12:56.958Z,14.05
2023-10-19T09:13:57.008Z,14.04
2023-10-19T09:14:56.934Z,14.01
2023-10-19T09:15:57.873Z,13.99
2023-10-19T09:16:56.992Z,13.98
2023-10-19T09:17:56.925Z,13.96
2023-10-19T09:18:56.883Z,13.91
2023-10-19T09:19:56.920Z,13.86
2023-10-19T09:20:56.873Z,13.80
2023-10-19T09:21:56.842Z,13.76
2023-10-19T09:22:56.883Z,13.73
2023-10-19T09:23:56.828Z,13.71
2023-10-19T09:24:56.826Z,13.71
2023-10-19T09:25:56.866Z,13.72
2023-10-19T09:26:56.761Z,13.76
2023-10-19T09:27:56.809Z,13.80
2023-10-19T09:28:56.815Z,13.84
2023-10-19T09:29:56.723Z,13.90
2023-10-19T09:30:56.719Z,13.94
2023-10-19T09:31:56.731Z,14.04
2023-10-19T09:32:56.795Z,14.08
2023-10-19T09:33:56.689Z,14.11
2023-10-19T09:34:56.683Z,14.19
2023-10-19T09:35:56.636Z,14.24
2023-10-19T09:36:56.628Z,14.31
2023-10-19T09:37:56.649Z,14.36
2023-10-19T09:38:56.599Z,14.41
2023-10-19T09:39:56.596Z,14.45
2023-10-19T09:40:56.689Z,14.49
2023-10-19T09:41:56.574Z,14.52
2023-10-19T09:42:56.719Z,14.56
2023-10-19T09:43:56.610Z,14.64
2023-10-19T09:44:56.578Z,14.72
2023-10-19T09:45:56.516Z,14.85
2023-10-19T09:46:56.572Z,14.98
2023-10-19T09:47:56.574Z,15.16
2023-10-19T09:48:56.472Z,15.28
2023-10-19T09:49:56.483Z,15.53
2023-10-19T09:50:56.453Z,15.74
2023-10-19T09:52:57.426Z,15.93
2023-10-19T09:53:56.399Z,16.01
2023-10-19T09:54:56.378Z,16.07
2023-10-19T09:55:56.464Z,16.13
2023-10-19T09:56:56.367Z,16.10
2023-10-19T09:57:56.369Z,16.08
2023-10-19T09:58:56.380Z,16.08
2023-10-19T09:59:56.337Z,16.10
2023-10-19T10:00:56.382Z,16.08
2023-10-19T10:01:56.388Z,16.04
2023-10-19T10:02:56.322Z,16.10
2023-10-19T10:03:56.289Z,16.22
2023-10-19T10:04:56.298Z,16.34
2023-10-19T10:05:56.488Z,16.48
2023-10-19T10:06:56.270Z,16.66
2023-10-19T10:07:56.260Z,16.78
2023-10-19T10:08:56.215Z,16.84
2023-10-19T10:09:56.225Z,16.80
2023-10-19T10:10:56.263Z,16.77
2023-10-19T10:11:56.188Z,16.75
2023-10-19T10:12:56.163Z,16.69
2023-10-19T10:13:56.248Z,16.62
2023-10-19T10:14:56.235Z,16.59
2023-10-19T10:15:56.137Z,16.57
2023-10-19T10:16:56.163Z,16.57
2023-10-19T10:17:56.168Z,16.55
2023-10-19T10:18:56.085Z,16.51
2023-10-19T10:19:56.210Z,16.45
2023-10-19T10:20:56.119Z,16.42
2023-10-19T10:21:56.080Z,16.41
2023-10-19T10:22:56.057Z,16.37
2023-10-19T10:23:56.090Z,16.33
2023-10-19T10:24:56.028Z,16.29
2023-10-19T10:25:56.085Z,16.22
2023-10-19T10:26:56.019Z,16.07
2023-10-19T10:27:55.991Z,15.98
2023-10-19T10:28:56.008Z,15.91
2023-10-19T10:29:55.967Z,15.86
2023-10-19T10:30:56.008Z,15.78
2023-10-19T10:31:55.975Z,15.71
2023-10-19T10:32:55.956Z,15.62
2023-10-19T10:33:56.148Z,15.56
2023-10-19T10:34:55.938Z,15.49
2023-10-19T10:35:55.870Z,15.41
2023-10-19T10:36:55.860Z,15.38
2023-10-19T10:37:55.900Z,15.35
2023-10-19T10:38:55.833Z,15.40
2023-10-19T10:39:55.796Z,15.46
2023-10-19T10:40:55.843Z,15.59
2023-10-19T10:41:55.776Z,15.73
2023-10-19T10:42:55.774Z,15.89
2023-10-19T10:43:55.776Z,16.06
2023-10-19T10:44:55.726Z,16.18
2023-10-19T10:45:55.728Z,16.33
2023-10-19T10:46:55.786Z,16.54
2023-10-19T10:47:55.750Z,16.75
2023-10-19T10:48:55.696Z,16.91
2023-10-19T10:49:55.772Z,17.05
2023-10-19T10:50:56.912Z,17.14
2023-10-19T10:51:55.659Z,17.21
2023-10-19T10:52:55.676Z,17.24
2023-10-19T10:53:55.628Z,17.32
2023-10-19T10:54:55.604Z,17.40
2023-10-19T10:55:55.765Z,17.49
2023-10-19T10:56:55.572Z,17.58
2023-10-19T10:57:55.576Z,17.63
2023-10-19T10:58:55.626Z,17.55
2023-10-19T10:59:55.564Z,17.60
2023-10-19T11:00:55.559Z,17.70
2023-10-19T11:01:55.625Z,17.74
2023-10-19T11:02:55.523Z,17.81
2023-10-19T11:03:56.988Z,17.86
2023-10-19T11:04:55.541Z,17.91
2023-10-19T11:05:55.638Z,17.98
2023-10-19T11:06:55.459Z,18.02
2023-10-19T11:07:55.454Z,18.02
2023-10-19T11:08:55.447Z,18.05
2023-10-19T11:09:57.431Z,18.07
2023-10-19T11:10:55.449Z,18.14
2023-10-19T11:11:55.391Z,18.19
2023-10-19T11:12:55.362Z,18.19
2023-10-19T11:13:55.459Z,18.20
2023-10-19T11:14:55.351Z,18.23
2023-10-19T11:15:58.679Z,18.28
2023-10-19T11:16:55.421Z,18.28
2023-10-19T11:17:55.363Z,18.31
2023-10-19T11:18:55.295Z,18.31
2023-10-19T11:19:55.338Z,18.29
2023-10-19T11:20:55.285Z,18.32
2023-10-19T11:21:58.376Z,18.38
2023-10-19T11:22:56.291Z,18.38
2023-10-19T11:23:55.252Z,18.39
2023-10-19T11:24:55.211Z,18.35
2023-10-19T11:25:55.260Z,18.34
2023-10-19T11:26:55.181Z,18.31
2023-10-19T11:27:57.014Z,18.26
2023-10-19T11:28:55.229Z,18.21
2023-10-19T11:29:55.160Z,18.23
2023-10-19T11:30:55.140Z,18.20
2023-10-19T11:31:55.146Z,18.19
2023-10-19T11:32:55.194Z,18.20
2023-10-19T11:33:55.109Z,18.20
2023-10-19T11:34:55.156Z,18.13
2023-10-19T11:35:55.147Z,18.07
2023-10-19T11:36:55.071Z,18.04
2023-10-19T11:37:55.069Z,18.02
2023-10-19T11:38:55.070Z,17.95
2023-10-19T11:39:55.015Z,17.91
2023-10-19T11:40:55.034Z,17.87
2023-10-19T11:41:54.983Z,17.86
2023-10-19T11:42:54.968Z,17.86
2023-10-19T11:43:57.210Z,17.89
2023-10-19T11:44:54.928Z,17.89
2023-10-19T11:45:54.955Z,17.81
2023-10-19T11:46:55.015Z,17.79
2023-10-19T11:47:54.927Z,17.81
2023-10-19T11:48:54.887Z,17.86
2023-10-19T11:49:54.910Z,17.84
2023-10-19T11:50:54.866Z,17.83
2023-10-19T11:51:54.841Z,17.83
2023-10-19T11:52:54.982Z,17.86
2023-10-19T11:53:54.815Z,17.87
2023-10-19T11:54:54.811Z,17.91
2023-10-19T11:55:54.824Z,17.94
2023-10-19T11:56:54.783Z,17.98
2023-10-19T11:57:54.768Z,18.01
2023-10-19T11:58:54.774Z,18.02
2023-10-19T11:59:57.306Z,18.02
2023-10-19T12:00:54.722Z,18.02
2023-10-19T12:01:54.814Z,18.01
2023-10-19T12:02:54.876Z,18.01
2023-10-19T12:03:54.691Z,18.01
2023-10-19T12:04:54.686Z,18.01
2023-10-19T12:05:57.241Z,17.99
2023-10-19T12:06:54.660Z,17.96
2023-10-19T12:07:54.689Z,17.95
2023-10-19T12:08:54.615Z,17.94
2023-10-19T12:09:54.612Z,17.92
2023-10-19T12:10:54.606Z,17.91
2023-10-19T12:11:54.637Z,17.89
2023-10-19T12:13:02.028Z,17.87
2023-10-19T12:13:55.640Z,17.86
2023-10-19T12:14:54.562Z,17.83
2023-10-19T12:15:54.560Z,17.83
2023-10-19T12:17:54.674Z,17.79
2023-10-19T12:18:54.498Z,17.77
2023-10-19T12:19:54.509Z,17.76
2023-10-19T12:20:54.474Z,17.76
2023-10-19T12:21:54.433Z,17.76
2023-10-19T12:22:54.506Z,17.74
2023-10-19T12:23:54.427Z,17.79
2023-10-19T12:24:54.408Z,17.80
2023-10-19T12:25:57.697Z,17.84
2023-10-19T12:26:54.377Z,17.86
2023-10-19T12:27:54.373Z,17.91
2023-10-19T12:28:54.347Z,17.92
2023-10-19T12:29:54.349Z,17.95
2023-10-19T12:30:54.415Z,17.98
2023-10-19T12:31:54.366Z,17.99
2023-10-19T12:32:54.354Z,18.01
2023-10-19T12:33:54.279Z,18.01
2023-10-19T12:34:54.310Z,18.01
2023-10-19T12:35:54.247Z,18.01
2023-10-19T12:36:54.227Z,18.01
2023-10-19T12:37:54.292Z,17.98
2023-10-19T12:38:57.798Z,17.96
2023-10-19T12:39:54.187Z,17.96
2023-10-19T12:40:54.208Z,17.96
2023-10-19T12:41:54.156Z,17.96
2023-10-19T12:42:54.168Z,17.96
2023-10-19T12:43:54.471Z,17.96
2023-10-19T12:44:54.101Z,17.96
2023-10-19T12:45:54.147Z,17.94
2023-10-19T12:46:54.291Z,17.91
2023-10-19T12:47:54.141Z,17.87
2023-10-19T12:48:54.144Z,17.86
2023-10-19T12:49:56.461Z,17.86
2023-10-19T12:50:54.035Z,17.87
2023-10-19T12:51:54.048Z,17.91
2023-10-19T12:52:54.104Z,17.94
2023-10-19T12:53:54.006Z,17.96
2023-10-19T12:54:53.977Z,17.96
2023-10-19T12:55:54.010Z,18.01
2023-10-19T12:56:53.939Z,18.04
2023-10-19T12:57:53.945Z,18.09
2023-10-19T12:58:53.925Z,18.13
2023-10-19T12:59:53.902Z,18.16
2023-10-19T13:00:53.895Z,18.17
2023-10-19T13:01:53.988Z,18.14
2023-10-19T13:02:53.937Z,18.11
2023-10-19T13:03:53.931Z,18.13
2023-10-19T13:04:53.875Z,18.13
2023-10-19T13:05:53.827Z,18.10
2023-10-19T13:06:53.840Z,18.05
2023-10-19T13:07:53.936Z,18.02
2023-10-19T13:08:53.805Z,18.01
2023-10-19T13:09:53.799Z,18.02